createdAt,value
2023-03-06T00:00:38.110Z,0.55
2023-03-06T00:01:38.033Z,0.56
2023-03-06T00:02:37.974Z,0.57
2023-03-06T00:03:38.038Z,0.56
2023-03-06T00:04:37.879Z,0.56
2023-03-06T00:05:37.836Z,0.56
2023-03-06T00:06:37.778Z,0.57
2023-03-06T00:07:37.698Z,0.56
2023-03-06T00:08:37.703Z,0.57
2023-03-06T00:09:40.178Z,0.57
2023-03-06T00:10:37.750Z,0.59
2023-03-06T00:11:37.713Z,0.56
2023-03-06T00:12:37.678Z,0.56
2023-03-06T00:13:37.594Z,0.57
2023-03-06T00:14:37.609Z,0.57
2023-03-06T00:15:37.541Z,0.57
2023-03-06T00:16:37.519Z,0.57
2023-03-06T00:17:37.414Z,0.56
2023-03-06T00:18:37.347Z,0.58
2023-03-06T00:19:37.340Z,0.56
2023-03-06T00:20:37.297Z,0.57
2023-03-06T00:21:37.282Z,0.56
2023-03-06T00:22:37.148Z,0.57
2023-03-06T00:23:37.117Z,0.57
2023-03-06T00:24:39.175Z,0.57
2023-03-06T00:25:37.001Z,0.57
2023-03-06T00:26:36.926Z,0.58
2023-03-06T00:27:36.926Z,0.58
2023-03-06T00:28:36.817Z,0.57
2023-03-06T00:29:36.801Z,0.57
2023-03-06T00:30:36.724Z,0.57
2023-03-06T00:31:36.770Z,0.58
2023-03-06T00:32:36.815Z,0.56
2023-03-06T00:33:36.618Z,0.56
2023-03-06T00:34:36.702Z,0.56
2023-03-06T00:35:36.716Z,0.58
2023-03-06T00:36:36.430Z,0.58
2023-03-06T00:37:36.403Z,0.57
2023-03-06T00:38:36.355Z,0.57
2023-03-06T00:39:36.254Z,0.57
2023-03-06T00:40:36.248Z,0.56
2023-03-06T00:41:36.188Z,0.58
2023-03-06T00:42:36.371Z,0.57
2023-03-06T00:43:36.105Z,0.57
2023-03-06T00:44:36.052Z,0.58
2023-03-06T00:45:36.196Z,0.57
2023-03-06T00:46:35.941Z,0.58
2023-03-06T00:47:35.921Z,0.59
2023-03-06T00:48:35.834Z,0.57
2023-03-06T00:49:35.798Z,0.57
2023-03-06T00:50:35.870Z,0.58
2023-03-06T00:51:35.703Z,0.57
2023-03-06T00:52:35.652Z,0.57
2023-03-06T00:53:35.680Z,0.59
2023-03-06T00:54:35.575Z,0.58
2023-03-06T00:55:35.533Z,0.57
2023-03-06T00:56:35.461Z,0.59
2023-03-06T00:57:35.402Z,0.59
2023-03-06T00:58:35.365Z,0.57
2023-03-06T01:26:35.658Z,0.58
2023-03-06T02:32:36.553Z,0.58
2023-03-06T04:31:28.338Z,0.56
2023-03-06T04:32:28.368Z,0.55
2023-03-06T04:33:28.368Z,0.54
2023-03-06T04:35:28.280Z,0.54
2023-03-06T04:36:28.221Z,0.54
2023-03-06T04:37:28.213Z,0.54
2023-03-06T04:38:28.149Z,0.54
2023-03-06T04:39:28.117Z,0.54
2023-03-06T04:40:28.145Z,0.55
2023-03-06T04:41:28.077Z,0.55
2023-03-06T04:42:28.072Z,0.55
2023-03-06T04:43:28.029Z,0.54
2023-03-06T04:45:28.039Z,0.55
2023-03-06T04:46:27.972Z,0.55
2023-03-06T04:47:27.957Z,0.55
2023-03-06T04:48:27.964Z,0.56
2023-03-06T04:49:27.934Z,0.58
2023-03-06T04:50:27.899Z,0.55
2023-03-06T04:51:28.080Z,0.56
2023-03-06T04:52:27.852Z,0.59
2023-03-06T04:53:27.965Z,0.59
2023-03-06T04:54:28.285Z,0.59
2023-03-06T04:55:27.824Z,0.59
2023-03-06T04:56:27.847Z,0.59
2023-03-06T04:57:27.777Z,0.57
2023-03-06T04:58:27.821Z,0.61
2023-03-06T04:59:27.780Z,0.60
2023-03-06T05:00:27.709Z,0.57
2023-03-06T05:01:27.679Z,0.58
2023-03-06T05:02:27.740Z,0.57
2023-03-06T05:03:27.763Z,0.58
2023-03-06T05:04:27.664Z,0.59
2023-03-06T05:05:27.633Z,0.60
2023-03-06T05:06:27.596Z,0.58
2023-03-06T05:07:27.549Z,0.58
2023-03-06T05:08:27.524Z,0.56
2023-03-06T05:09:27.569Z,0.58
2023-03-06T05:10:28.284Z,0.59
2023-03-06T05:11:27.507Z,0.58
2023-03-06T05:12:27.449Z,0.57
2023-03-06T05:13:27.461Z,0.57
2023-03-06T05:14:27.429Z,0.56
2023-03-06T05:15:27.453Z,0.61
2023-03-06T05:16:27.465Z,0.60
2023-03-06T05:17:27.398Z,0.61
2023-03-06T05:18:27.385Z,0.59
2023-03-06T05:19:27.361Z,0.61
2023-03-06T05:20:48.385Z,0.61
2023-03-06T05:21:27.297Z,0.61
2023-03-06T05:22:28.291Z,0.62
2023-03-06T05:23:27.317Z,0.62
2023-03-06T05:24:27.266Z,0.63
2023-03-06T05:25:27.277Z,0.62
2023-03-06T05:26:27.221Z,0.63
2023-03-06T05:27:27.200Z,0.65
2023-03-06T05:28:27.240Z,0.65
2023-03-06T05:29:27.141Z,0.65
2023-03-06T05:30:27.191Z,0.65
2023-03-06T05:31:27.105Z,0.64
2023-03-06T05:32:27.145Z,0.65
2023-03-06T05:33:27.048Z,0.66
2023-03-06T05:34:27.038Z,0.68
2023-03-06T05:36:26.996Z,0.68
2023-03-06T05:37:26.952Z,0.68
2023-03-06T05:38:26.934Z,0.69
2023-03-06T05:39:26.924Z,0.70
2023-03-06T05:40:26.929Z,0.74
2023-03-06T05:41:26.878Z,0.76
2023-03-06T05:42:28.558Z,0.75
2023-03-06T05:43:26.828Z,0.78
2023-03-06T05:44:26.826Z,0.83
2023-03-06T05:45:26.809Z,0.83
2023-03-06T05:46:26.806Z,0.83
2023-03-06T05:47:27.791Z,0.84
2023-03-06T05:48:26.734Z,0.86
2023-03-06T05:49:26.721Z,0.85
2023-03-06T05:50:26.859Z,0.93
2023-03-06T05:51:26.723Z,0.92
2023-03-06T05:52:26.696Z,0.91
2023-03-06T05:53:26.704Z,0.94
2023-03-06T05:54:26.645Z,0.93
2023-03-06T05:55:26.609Z,0.89
2023-03-06T05:56:26.754Z,0.96
2023-03-06T05:57:26.547Z,0.94
2023-03-06T05:58:26.521Z,0.96
2023-03-06T05:59:26.542Z,0.98
2023-03-06T06:00:26.513Z,0.99
2023-03-06T06:01:26.576Z,1.04
2023-03-06T06:02:26.527Z,1.11
2023-03-06T06:03:26.495Z,1.12
2023-03-06T06:04:26.419Z,1.15
2023-03-06T06:05:26.547Z,1.24
2023-03-06T06:06:26.416Z,1.41
2023-03-06T06:07:26.337Z,1.71
2023-03-06T06:08:26.364Z,1.81
2023-03-06T06:09:26.290Z,1.89
2023-03-06T06:10:26.226Z,1.97
2023-03-06T06:11:26.202Z,2.09
2023-03-06T06:12:26.171Z,2.10
2023-03-06T06:13:26.195Z,2.19
2023-03-06T06:14:26.128Z,2.30
2023-03-06T06:15:26.105Z,2.34
2023-03-06T06:16:26.107Z,2.48
2023-03-06T06:17:26.029Z,2.56
2023-03-06T06:18:25.996Z,2.66
2023-03-06T06:19:25.987Z,2.65
2023-03-06T06:20:25.959Z,2.79
2023-03-06T06:21:25.988Z,2.87
2023-03-06T06:22:25.894Z,2.89
2023-03-06T06:23:25.861Z,2.96
2023-03-06T06:24:25.859Z,3.14
2023-03-06T06:27:25.725Z,3.37
2023-03-06T06:28:25.756Z,3.39
2023-03-06T06:30:25.813Z,3.58
2023-03-06T06:31:25.705Z,3.60
2023-03-06T06:32:25.663Z,3.65
2023-03-06T06:33:25.610Z,3.67
2023-03-06T06:34:25.914Z,3.59
2023-03-06T06:35:25.725Z,3.06
2023-03-06T06:36:26.370Z,3.10
2023-03-06T06:37:25.546Z,2.84
2023-03-06T06:38:25.540Z,2.75
2023-03-06T06:39:25.504Z,2.58
2023-03-06T06:43:25.432Z,2.63
2023-03-06T06:44:25.421Z,2.71
2023-03-06T06:45:25.382Z,2.97
2023-03-06T06:47:17.895Z,2.96
2023-03-06T06:47:26.107Z,2.60
2023-03-06T06:49:25.383Z,2.85
2023-03-06T06:50:26.179Z,3.16
2023-03-06T06:52:25.713Z,3.75
2023-03-06T06:54:27.156Z,4.10
2023-03-06T06:55:30.287Z,4.16
2023-03-06T07:33:23.539Z,13.17
2023-03-06T07:46:23.427Z,8.14
2023-03-06T07:48:22.853Z,8.27
2023-03-06T08:02:43.294Z,0.50
2023-03-06T08:03:46.262Z,0.50
2023-03-06T08:04:44.506Z,0.50
2023-03-06T08:05:43.022Z,0.50
2023-03-06T08:06:42.918Z,0.50
2023-03-06T08:07:43.231Z,0.50
2023-03-06T08:08:42.931Z,0.50
2023-03-06T08:09:43.234Z,0.50
2023-03-06T08:10:42.611Z,0.50
2023-03-06T08:11:42.683Z,0.50
2023-03-06T08:12:42.430Z,0.50
2023-03-06T08:13:43.841Z,0.50
2023-03-06T08:14:42.801Z,0.52
2023-03-06T08:15:42.293Z,0.50
2023-03-06T08:16:42.212Z,0.53
2023-03-06T08:17:42.208Z,0.50
2023-03-06T08:18:45.118Z,0.51
2023-03-06T08:19:42.000Z,0.51
2023-03-06T08:20:42.287Z,0.51
2023-03-06T08:21:42.060Z,0.49
2023-03-06T08:22:42.281Z,0.48
2023-03-06T08:23:43.205Z,0.48
2023-03-06T08:24:41.590Z,0.50
2023-03-06T08:25:41.497Z,0.52
2023-03-06T08:26:41.393Z,0.50
2023-03-06T08:27:41.429Z,0.50
2023-03-06T08:28:41.421Z,0.51
2023-03-06T08:29:41.192Z,0.51
2023-03-06T08:30:41.157Z,0.53
2023-03-06T08:31:41.140Z,0.52
2023-03-06T08:32:40.995Z,0.55
2023-03-06T08:33:42.693Z,0.54
2023-03-06T08:34:42.042Z,0.56
2023-03-06T08:35:42.852Z,0.55
2023-03-06T08:36:41.292Z,0.62
2023-03-06T08:37:40.634Z,0.60
2023-03-06T08:38:40.579Z,0.61
2023-03-06T08:39:40.811Z,0.57
2023-03-06T08:40:40.607Z,0.56
2023-03-06T08:41:40.357Z,0.58
2023-03-06T08:42:40.444Z,0.51
2023-03-06T08:43:41.175Z,0.48
2023-03-06T08:44:41.203Z,0.47
2023-03-06T08:45:40.147Z,0.50
2023-03-06T08:46:39.949Z,0.51
2023-03-06T08:47:39.885Z,0.54
2023-03-06T08:48:39.955Z,0.53
2023-03-06T08:49:39.845Z,0.57
2023-03-06T08:50:39.785Z,0.61
2023-03-06T08:52:39.737Z,0.50
2023-03-06T08:53:43.582Z,0.49
2023-03-06T08:54:40.212Z,0.46
2023-03-06T08:55:39.549Z,0.39
2023-03-06T08:57:39.357Z,0.34
2023-03-06T08:58:39.342Z,0.34
2023-03-06T08:59:39.315Z,0.34
2023-03-06T09:00:39.375Z,0.34
2023-03-06T09:01:39.266Z,0.34
2023-03-06T09:02:39.219Z,0.34
2023-03-06T09:03:40.787Z,0.37
2023-03-06T09:04:39.200Z,0.34
2023-03-06T09:05:39.116Z,0.34
2023-03-06T09:06:39.050Z,0.34
2023-03-06T09:07:39.725Z,0.34
2023-03-06T09:08:38.988Z,0.34
2023-03-06T09:09:41.045Z,0.45
2023-03-06T09:10:38.907Z,0.52
2023-03-06T09:11:38.814Z,0.55
2023-03-06T09:12:49.475Z,0.59
2023-03-06T09:13:39.720Z,0.60
2023-03-06T09:14:38.685Z,0.61
2023-03-06T09:15:38.637Z,0.65
2023-03-06T09:16:38.580Z,0.70
2023-03-06T09:17:38.572Z,0.71
2023-03-06T09:18:38.448Z,0.60
2023-03-06T09:19:38.352Z,0.59
2023-03-06T09:20:38.300Z,0.58
2023-03-06T09:21:38.257Z,0.55
2023-03-06T09:22:38.206Z,0.50
2023-03-06T09:23:38.239Z,0.47
2023-03-06T09:24:38.158Z,0.43
2023-03-06T09:25:38.222Z,0.41
2023-03-06T09:26:46.177Z,0.38
2023-03-06T09:27:39.045Z,0.36
2023-03-06T09:28:39.327Z,0.36
2023-03-06T09:29:38.501Z,0.34
2023-03-06T09:30:37.891Z,0.34
2023-03-06T09:31:37.828Z,0.34
2023-03-06T09:32:37.917Z,0.42
2023-03-06T09:33:37.791Z,0.50
2023-03-06T09:34:37.760Z,0.51
2023-03-06T09:35:37.679Z,0.54
2023-03-06T09:36:53.417Z,0.58
2023-03-06T09:37:38.538Z,0.58
2023-03-06T09:38:37.486Z,0.59
2023-03-06T09:39:37.480Z,0.60
2023-03-06T09:40:37.414Z,0.63
2023-03-06T09:41:37.315Z,0.69
2023-03-06T10:04:51.535Z,1.53
2023-03-06T10:36:34.276Z,1.94
2023-03-06T10:37:34.097Z,2.16
2023-03-06T10:38:34.179Z,2.39
2023-03-06T10:39:33.955Z,2.47
2023-03-06T10:40:33.847Z,2.40
2023-03-06T10:42:34.295Z,2.70
2023-03-06T10:43:36.261Z,2.83
2023-03-06T10:44:34.858Z,2.95
2023-03-06T10:45:48.519Z,2.76
2023-03-06T10:46:34.644Z,2.36
2023-03-06T10:47:33.344Z,2.60
2023-03-06T10:48:33.305Z,2.87
2023-03-06T10:49:33.227Z,2.98
2023-03-06T10:50:33.301Z,2.84
2023-03-06T10:51:34.351Z,2.78
2023-03-06T10:52:32.984Z,2.88
2023-03-06T10:53:33.797Z,2.91
2023-03-06T10:54:33.188Z,3.09
2023-03-06T10:55:33.986Z,3.34
2023-03-06T10:56:32.813Z,3.49
2023-03-06T10:57:32.902Z,3.70
2023-03-06T10:58:32.658Z,3.80
2023-03-06T10:59:32.486Z,3.86
2023-03-06T11:01:32.359Z,4.20
2023-03-06T11:02:32.195Z,4.53
2023-03-06T11:03:32.139Z,4.54
2023-03-06T11:04:32.159Z,4.60
2023-03-06T11:05:31.974Z,4.73
2023-03-06T11:07:31.781Z,5.69
2023-03-06T11:08:31.834Z,6.00
2023-03-06T11:09:31.611Z,6.12
2023-03-06T11:10:31.544Z,6.33
2023-03-06T11:11:37.388Z,5.18
2023-03-06T11:12:32.398Z,3.73
2023-03-06T11:13:31.278Z,2.39
2023-03-06T11:14:31.197Z,1.78
2023-03-06T11:15:31.160Z,1.49
2023-03-06T11:16:31.389Z,1.05
2023-03-06T11:17:32.019Z,0.86
2023-03-06T11:18:30.878Z,0.79
2023-03-06T11:19:30.775Z,0.69
2023-03-06T11:20:44.624Z,0.80
2023-03-06T11:21:31.732Z,0.80
2023-03-06T11:22:30.688Z,0.85
2023-03-06T11:23:30.929Z,0.98
2023-03-06T11:24:30.412Z,1.20
2023-03-06T11:25:30.397Z,1.62
2023-03-06T11:26:30.281Z,1.76
2023-03-06T11:27:30.185Z,1.95
2023-03-06T11:28:30.071Z,2.15
2023-03-06T11:29:30.810Z,2.16
2023-03-06T11:33:30.718Z,3.07
2023-03-06T12:15:26.184Z,6.73
2023-03-06T12:16:26.219Z,6.77
2023-03-06T12:17:26.162Z,7.06
2023-03-06T12:18:25.939Z,6.99
2023-03-06T12:19:25.829Z,6.64
2023-03-06T12:20:25.732Z,6.72
2023-03-06T12:21:25.635Z,6.60
2023-03-06T12:22:25.659Z,6.40
2023-03-06T12:23:25.580Z,7.39
2023-03-06T12:24:25.382Z,14.57
2023-03-06T12:25:25.302Z,22.61
2023-03-06T12:26:25.286Z,22.58
2023-03-06T12:27:25.153Z,20.79
2023-03-06T12:28:25.390Z,18.73
2023-03-06T12:29:24.964Z,15.44
2023-03-06T12:30:24.977Z,14.82
2023-03-06T12:31:24.960Z,15.91
2023-03-06T12:32:26.277Z,15.95
2023-03-06T12:33:25.888Z,16.07
2023-03-06T12:34:24.512Z,16.50
2023-03-06T12:35:24.458Z,16.68
2023-03-06T12:36:24.317Z,17.09
2023-03-06T12:37:31.097Z,16.64
2023-03-06T12:38:24.560Z,16.67
2023-03-06T12:39:24.074Z,16.66
2023-03-06T12:40:24.419Z,16.78
2023-03-06T12:41:24.021Z,16.51
2023-03-06T12:42:25.001Z,16.39
2023-03-06T12:43:23.721Z,16.67
2023-03-06T12:44:23.660Z,16.35
2023-03-06T12:45:23.617Z,15.25
2023-03-06T12:46:23.585Z,14.60
2023-03-06T12:47:24.408Z,14.27
2023-03-06T12:48:23.562Z,13.46
2023-03-06T12:49:31.858Z,13.15
2023-03-06T12:50:24.121Z,13.16
2023-03-06T12:51:23.161Z,13.16
2023-03-06T12:52:29.701Z,12.78
2023-03-06T12:53:23.874Z,12.74
2023-03-06T12:54:22.741Z,11.93
2023-03-06T12:55:25.527Z,11.39
2023-03-06T12:56:22.555Z,11.23
2023-03-06T12:57:22.586Z,11.12
2023-03-06T12:58:22.504Z,10.84
2023-03-06T12:59:22.285Z,11.00
2023-03-06T13:00:22.228Z,11.09
2023-03-06T13:01:22.171Z,10.66
2023-03-06T13:02:22.164Z,10.09
2023-03-06T13:03:21.978Z,10.15
2023-03-06T13:04:21.889Z,9.93
2023-03-06T13:05:21.779Z,9.54
2023-03-06T13:06:21.764Z,9.52
2023-03-06T13:07:21.614Z,9.38
2023-03-06T13:08:21.560Z,9.20
2023-03-06T13:09:21.413Z,9.12
2023-03-06T13:10:21.410Z,9.09
2023-03-06T13:11:21.271Z,9.06
2023-03-06T13:12:21.178Z,8.92
2023-03-06T13:13:21.126Z,8.07
2023-03-06T13:14:21.003Z,7.95
2023-03-06T13:15:20.932Z,7.72
2023-03-06T13:16:20.881Z,7.76
2023-03-06T13:17:20.730Z,7.40
2023-03-06T13:18:21.855Z,7.24
2023-03-06T13:19:20.603Z,7.18
2023-03-06T13:20:20.498Z,6.99
2023-03-06T13:21:20.443Z,7.03
2023-03-06T13:22:20.303Z,6.81
2023-03-06T13:23:20.203Z,6.74
2023-03-06T13:24:20.223Z,6.76
2023-03-06T13:25:20.221Z,6.74
2023-03-06T13:26:20.075Z,6.65
2023-03-06T13:38:20.246Z,1.16
2023-03-06T14:14:21.175Z,0.64
2023-03-06T16:20:10.661Z,26.46
2023-03-06T16:25:10.384Z,26.41
2023-03-06T16:26:10.279Z,26.15
2023-03-06T16:27:10.190Z,26.19
2023-03-06T16:28:10.164Z,26.34
2023-03-06T16:29:10.070Z,26.81
2023-03-06T16:30:09.963Z,26.67
2023-03-06T16:31:09.999Z,27.84
2023-03-06T18:40:01.455Z,24.08
2023-03-06T18:49:01.044Z,24.59
2023-03-06T18:50:00.696Z,25.16
2023-03-06T18:51:00.663Z,24.50
2023-03-06T18:52:00.667Z,24.67
2023-03-06T18:53:00.500Z,24.32
2023-03-06T18:54:00.592Z,24.52
2023-03-06T18:55:00.434Z,24.14
2023-03-06T18:56:00.371Z,24.21
2023-03-06T18:57:00.318Z,23.81
2023-03-06T18:58:00.152Z,24.37
2023-03-06T18:59:00.164Z,24.22
2023-03-06T19:00:00.072Z,24.38
2023-03-06T19:01:00.215Z,23.78
2023-03-06T20:16:55.191Z,20.68
2023-03-06T20:17:56.715Z,20.54
2023-03-06T20:18:54.915Z,20.61
2023-03-06T20:19:54.899Z,20.64
2023-03-06T20:20:54.788Z,20.62
2023-03-06T20:21:54.728Z,20.48
2023-03-06T20:22:54.799Z,20.22
2023-03-06T20:23:54.560Z,20.28
2023-03-06T20:24:54.516Z,20.23
2023-03-06T20:25:54.485Z,20.55
2023-03-06T20:26:54.367Z,20.19
2023-03-06T20:27:54.459Z,20.41
2023-03-06T20:28:54.236Z,20.10
2023-03-06T20:29:54.175Z,19.77
2023-03-06T20:30:54.123Z,20.63
2023-03-06T20:31:54.034Z,20.37
2023-03-06T20:32:54.280Z,20.25
2023-03-06T20:33:53.933Z,20.16
2023-03-06T20:34:53.904Z,19.95
2023-03-06T20:35:53.846Z,20.40
2023-03-06T20:36:53.727Z,20.43
2023-03-06T20:37:53.661Z,19.80
2023-03-06T20:38:53.542Z,19.96
2023-03-06T20:39:53.507Z,19.64
2023-03-06T20:40:53.489Z,19.77
2023-03-06T20:41:53.406Z,19.80
2023-03-06T20:42:53.306Z,19.43
2023-03-06T20:43:53.219Z,19.79
2023-03-06T20:44:53.174Z,19.62
2023-03-06T20:45:53.120Z,19.70
2023-03-06T20:46:53.060Z,19.44
2023-03-06T20:47:53.072Z,19.59
2023-03-06T20:48:52.995Z,19.73
2023-03-06T20:49:52.837Z,19.49
2023-03-06T20:50:52.791Z,19.53
2023-03-06T20:51:52.736Z,19.50
2023-03-06T20:52:52.722Z,19.58
2023-03-06T20:53:52.586Z,19.71
2023-03-06T20:54:52.527Z,19.95
2023-03-06T20:55:52.476Z,19.53
2023-03-06T20:56:52.410Z,19.83
2023-03-06T20:57:52.474Z,19.05
2023-03-06T20:58:52.292Z,19.08
2023-03-06T20:59:52.275Z,19.14
2023-03-06T21:00:52.136Z,19.30
2023-03-06T21:01:52.102Z,19.25
2023-03-06T21:02:52.017Z,19.64
2023-03-06T21:03:51.950Z,19.12
2023-03-06T21:04:51.909Z,19.08
2023-03-06T21:05:51.806Z,19.07
2023-03-06T21:06:51.763Z,18.90
2023-03-06T21:07:51.685Z,19.19
2023-03-06T21:08:51.632Z,19.13
2023-03-06T21:09:51.557Z,19.06
2023-03-06T21:10:51.516Z,18.59
2023-03-06T21:11:51.462Z,18.80
2023-03-06T21:12:51.375Z,18.67
2023-03-06T21:13:51.302Z,18.54
2023-03-06T21:14:51.270Z,19.00
2023-03-06T21:15:51.243Z,19.19
2023-03-06T21:16:51.134Z,18.59
2023-03-06T21:17:51.067Z,18.79
2023-03-06T21:18:51.039Z,18.32
2023-03-06T21:19:51.026Z,18.57
2023-03-06T21:20:50.939Z,18.04
2023-03-06T21:21:50.833Z,18.34
2023-03-06T21:22:50.808Z,18.35
2023-03-06T21:24:51.737Z,18.77
2023-03-06T21:25:51.174Z,18.45
2023-03-06T21:26:50.551Z,18.38
2023-03-06T21:27:50.459Z,18.41
2023-03-06T21:28:50.448Z,18.43
2023-03-06T21:29:50.404Z,18.50
2023-03-06T21:30:50.272Z,18.48
2023-03-06T21:31:50.220Z,18.47
2023-03-06T21:32:50.166Z,18.48
2023-03-06T21:33:50.119Z,18.07
2023-03-06T21:34:50.022Z,18.22
2023-03-06T21:35:49.991Z,17.69
2023-03-06T23:03:44.389Z,15.64
2023-03-06T23:05:44.287Z,15.76
2023-03-06T23:06:44.240Z,15.55
2023-03-06T23:07:44.215Z,15.78
2023-03-06T23:08:44.099Z,15.36
2023-03-06T23:09:44.128Z,15.04
2023-03-06T23:10:44.002Z,15.64
2023-03-06T23:11:43.920Z,15.33
2023-03-06T23:12:43.859Z,15.22
2023-03-06T23:13:43.784Z,15.34
2023-03-06T23:14:43.756Z,15.09
2023-03-06T23:15:43.707Z,14.91
2023-03-06T23:16:43.580Z,15.40
2023-03-06T23:17:43.585Z,15.22
2023-03-06T23:18:43.455Z,14.36
2023-03-06T23:19:43.383Z,15.02
2023-03-06T23:20:43.310Z,14.94
2023-03-06T23:21:43.256Z,15.04
2023-03-06T23:22:43.223Z,14.63
2023-03-06T23:23:43.190Z,15.12
2023-03-06T23:24:43.065Z,14.49
2023-03-06T23:25:43.013Z,14.64
2023-03-06T23:26:42.977Z,14.63
2023-03-06T23:27:42.937Z,14.49
2023-03-06T23:28:42.856Z,14.50
2023-03-06T23:29:42.861Z,14.29
2023-03-06T23:30:42.830Z,14.43
2023-03-06T23:31:42.666Z,14.20
2023-03-06T23:32:44.291Z,14.00
2023-03-06T23:33:42.503Z,14.58
2023-03-06T23:34:42.463Z,14.32
2023-03-06T23:35:42.488Z,14.60
2023-03-06T23:36:42.294Z,14.18
2023-03-06T23:37:42.231Z,14.09
2023-03-06T23:38:42.174Z,13.97
2023-03-06T23:39:42.091Z,14.39
2023-03-06T23:40:42.043Z,14.43
2023-03-06T23:41:42.014Z,14.46
2023-03-06T23:42:41.965Z,14.28
2023-03-06T23:43:41.854Z,14.36
2023-03-06T23:44:41.834Z,14.28
2023-03-06T23:45:41.729Z,14.02
2023-03-06T23:46:41.644Z,14.10
2023-03-06T23:47:41.629Z,14.11
2023-03-06T23:48:41.560Z,14.30
2023-03-06T23:49:41.459Z,13.89
2023-03-06T23:50:41.402Z,14.02
2023-03-06T23:51:41.345Z,14.08
2023-03-06T23:52:41.260Z,13.49
2023-03-06T23:53:41.214Z,13.97
2023-03-06T23:54:41.143Z,13.90
2023-03-06T23:55:41.110Z,13.91
2023-03-06T23:56:40.996Z,13.91
2023-03-06T23:57:40.949Z,13.92
2023-03-06T23:58:40.885Z,13.95
2023-03-06T23:59:40.822Z,13.56
